Time;durP1;ratioP1;P1;durP2;ratioP2;P2;SDS_P1;SDS_P2;PMS_P1;PMS_P2;Temp;Humidity;BMP_temperature;BMP_pressure;BME280_temperature;BME280_humidity;BME280_pressure;Samples;Min_cycle;Max_cycle;Signal;HPM_P1;HPM_P2
2023/08/28 00:02:17;;;;;;;30.25;17.92;;;;;;;-142.57;100.00;115900.28;4975954;28;20045;-82
2023/08/28 00:04:43;;;;;;;25.50;17.60;;;;;;;-142.57;100.00;115900.28;4971396;28;20035;-82
2023/08/28 00:07:08;;;;;;;34.33;18.38;;;;;;;-142.57;100.00;115900.28;4956680;28;20485;-81
2023/08/28 00:09:34;;;;;;;27.20;19.02;;;;;;;-142.57;100.00;115900.28;4956641;28;20027;-82
2023/08/28 00:12:01;;;;;;;25.65;16.85;;;;;;;-142.57;100.00;115900.28;4974933;28;20045;-81
2023/08/28 00:14:26;;;;;;;26.33;18.80;;;;;;;-142.57;100.00;115900.28;4982982;28;20054;-80
2023/08/28 00:16:53;;;;;;;27.33;17.65;;;;;;;-142.57;100.00;115900.28;4997343;28;20054;-83
2023/08/28 00:19:18;;;;;;;27.33;18.33;;;;;;;-142.57;100.00;115900.28;4995539;28;20026;-83
2023/08/28 00:21:43;;;;;;;27.20;18.45;;;;;;;-142.57;100.00;115900.28;4996878;28;20045;-80
2023/08/28 00:24:09;;;;;;;25.83;18.13;;;;;;;-142.57;100.00;115900.28;4995739;28;20066;-83
2023/08/28 00:26:34;;;;;;;24.73;17.88;;;;;;;-142.57;100.00;115900.28;4975538;28;20118;-84
2023/08/28 00:29:00;;;;;;;28.23;17.35;;;;;;;-142.57;100.00;115900.28;4976273;28;20050;-83
2023/08/28 00:31:26;;;;;;;24.08;17.95;;;;;;;-142.57;100.00;115900.28;4976275;28;20031;-82
2023/08/28 00:33:52;;;;;;;28.85;18.30;;;;;;;-142.57;100.00;115900.28;4975426;28;20089;-82
2023/08/28 00:36:19;;;;;;;30.27;19.30;;;;;;;-142.57;100.00;115900.28;4973910;28;20439;-81
2023/08/28 00:38:44;;;;;;;31.52;18.35;;;;;;;-142.57;100.00;115900.28;4973542;28;20026;-84
2023/08/28 00:41:11;;;;;;;30.75;19.95;;;;;;;-142.57;100.00;115900.28;4974202;28;20027;-82
2023/08/28 00:43:37;;;;;;;32.83;19.98;;;;;;;-142.57;100.00;115900.28;4957767;28;20513;-83
2023/08/28 00:46:04;;;;;;;30.13;19.98;;;;;;;-142.57;100.00;115900.28;4974760;28;20107;-83
2023/08/28 00:48:29;;;;;;;30.98;19.92;;;;;;;-142.57;100.00;115900.28;4975418;28;20484;-81
2023/08/28 00:50:55;;;;;;;29.92;20.02;;;;;;;-142.57;100.00;115900.28;4973747;28;20097;-84
2023/08/28 00:53:23;;;;;;;33.78;20.33;;;;;;;-142.57;100.00;115900.28;4973792;28;20043;-81
2023/08/28 00:55:50;;;;;;;33.42;20.95;;;;;;;-142.57;100.00;115900.28;4975947;28;20461;-81
2023/08/28 00:58:15;;;;;;;36.78;23.15;;;;;;;-142.57;100.00;115900.28;4960793;28;20126;-81
2023/08/28 01:00:41;;;;;;;31.10;19.73;;;;;;;-142.57;100.00;115900.28;4976295;28;20399;-82
2023/08/28 01:03:07;;;;;;;34.22;21.33;;;;;;;-142.57;100.00;115900.28;4973297;28;20058;-85
2023/08/28 01:06:00;;;;;;;36.78;21.75;;;;;;;-142.57;100.00;115900.28;4973857;28;20110;-84
2023/08/28 01:08:31;;;;;;;35.95;20.77;;;;;;;-142.57;100.00;115900.28;4969078;28;20041;-83
2023/08/28 01:11:10;;;;;;;31.10;21.67;;;;;;;-142.57;100.00;115900.28;4987821;28;20125;-81
2023/08/28 01:13:45;;;;;;;32.33;21.50;;;;;;;-142.57;100.00;115900.28;4977435;28;20050;-81
2023/08/28 01:16:11;;;;;;;36.50;22.95;;;;;;;-142.57;100.00;115900.28;4980208;28;20037;-81
2023/08/28 01:18:37;;;;;;;39.67;23.33;;;;;;;-142.57;100.00;115900.28;4973120;28;20039;-79
2023/08/28 01:21:03;;;;;;;39.22;22.33;;;;;;;-142.57;100.00;115900.28;4974893;28;20551;-80
2023/08/28 01:23:43;;;;;;;41.47;25.13;;;;;;;-142.57;100.00;115900.28;4973160;28;20042;-81
2023/08/28 01:26:08;;;;;;;40.83;24.60;;;;;;;-142.57;100.00;115900.28;4973805;28;20030;-81
2023/08/28 01:28:34;;;;;;;39.40;24.52;;;;;;;-142.57;100.00;115900.28;4974406;28;20544;-83
2023/08/28 01:31:04;;;;;;;44.00;25.50;;;;;;;-142.57;100.00;115900.28;4973784;28;20539;-82
2023/08/28 01:33:35;;;;;;;36.33;23.73;;;;;;;-142.57;100.00;115900.28;4972974;28;20545;-82
2023/08/28 01:36:13;;;;;;;;;;;;;;;-142.57;100.00;115900.28;4973736;28;20094;-84
2023/08/28 01:38:48;;;;;;;46.35;27.83;;;;;;;-142.57;100.00;115900.28;4974572;28;19921;-80
2023/08/28 01:41:17;;;;;;;43.70;27.15;;;;;;;-142.57;100.00;115900.28;4972839;28;20074;-79
2023/08/28 01:43:48;;;;;;;41.00;27.63;;;;;;;-142.57;100.00;115900.28;4956824;28;20069;-83
2023/08/28 01:46:17;;;;;;;42.97;27.35;;;;;;;-142.57;100.00;115900.28;4972731;28;20050;-83
2023/08/28 01:48:45;;;;;;;51.20;27.58;;;;;;;-142.57;100.00;115900.28;4973492;28;20440;-83
2023/08/28 01:51:11;;;;;;;44.83;27.55;;;;;;;-142.57;100.00;115900.28;4973473;28;20353;-81
2023/08/28 01:53:36;;;;;;;43.50;27.85;;;;;;;-142.57;100.00;115900.28;4974398;28;20093;-84
2023/08/28 01:56:08;;;;;;;44.80;27.25;;;;;;;-142.57;100.00;115900.28;4973491;28;20035;-83
2023/08/28 01:58:46;;;;;;;43.23;27.27;;;;;;;-142.57;100.00;115900.28;4973363;28;20093;-83
2023/08/28 02:01:12;;;;;;;46.60;29.20;;;;;;;-142.57;100.00;115900.28;4973101;28;20125;-83
2023/08/28 02:03:38;;;;;;;40.28;26.90;;;;;;;-142.57;100.00;115900.28;4973783;28;20033;-82
2023/08/28 02:06:05;;;;;;;44.17;29.30;;;;;;;-142.57;100.00;115900.28;4972839;28;20039;-81
2023/08/28 02:08:31;;;;;;;48.88;29.58;;;;;;;-142.57;100.00;115900.28;4956413;28;20062;-83
2023/08/28 02:10:58;;;;;;;52.92;30.75;;;;;;;-142.57;100.00;115900.28;4973025;28;20053;-83
2023/08/28 02:13:23;;;;;;;50.20;28.58;;;;;;;-142.57;100.00;115900.28;4974259;28;20480;-83
2023/08/28 02:15:49;;;;;;;47.03;28.80;;;;;;;-142.57;100.00;115900.28;4974154;28;20488;-83
2023/08/28 02:18:14;;;;;;;46.38;29.23;;;;;;;-142.57;100.00;115900.28;4972910;28;20051;-81
2023/08/28 02:20:40;;;;;;;45.50;28.58;;;;;;;-142.57;100.00;115900.28;4971345;28;20109;-81
2023/08/28 02:23:06;;;;;;;46.70;29.63;;;;;;;-142.57;100.00;115900.28;4971950;28;20035;-80
2023/08/28 02:25:31;;;;;;;50.47;30.30;;;;;;;-142.57;100.00;115900.28;4972626;28;20097;-82
2023/08/28 02:27:57;;;;;;;44.05;30.40;;;;;;;-142.57;100.00;115900.28;4979007;28;20107;-84
2023/08/28 02:30:25;;;;;;;47.60;30.13;;;;;;;-142.57;100.00;115900.28;4987443;28;20043;-82
2023/08/28 02:32:52;;;;;;;45.90;30.58;;;;;;;-142.57;100.00;115900.28;4972635;28;20141;-82
2023/08/28 02:35:17;;;;;;;48.75;31.42;;;;;;;-142.57;100.00;115900.28;4973009;28;20113;-85
2023/08/28 02:37:42;;;;;;;50.47;31.13;;;;;;;-142.57;100.00;115900.28;4973005;28;20121;-82
2023/08/28 02:40:11;;;;;;;44.50;30.08;;;;;;;-142.57;100.00;115900.28;4974169;28;20046;-82
2023/08/28 02:42:37;;;;;;;45.47;29.80;;;;;;;-142.57;100.00;115900.28;4976530;28;20062;-81
2023/08/28 02:45:04;;;;;;;53.08;32.13;;;;;;;-142.57;100.00;115900.28;4978805;28;20031;-88
2023/08/28 02:47:30;;;;;;;53.15;32.65;;;;;;;-142.57;100.00;115900.28;4978527;28;20043;-81
2023/08/28 02:49:55;;;;;;;51.25;30.52;;;;;;;-142.57;100.00;115900.28;4976973;28;20035;-88
2023/08/28 02:52:21;;;;;;;48.53;31.08;;;;;;;-142.57;100.00;115900.28;4977009;28;20142;-84
2023/08/28 02:54:46;;;;;;;52.95;30.58;;;;;;;-142.57;100.00;115900.28;4976839;28;20034;-87
2023/08/28 02:57:12;;;;;;;47.15;30.38;;;;;;;-142.57;100.00;115900.28;4978582;28;20045;-90
2023/08/28 02:59:37;;;;;;;48.72;30.73;;;;;;;-142.57;100.00;115900.28;4976963;28;20035;-83
2023/08/28 03:02:03;;;;;;;46.17;28.70;;;;;;;-142.57;100.00;115900.28;4976001;28;20035;-79
2023/08/28 03:04:29;;;;;;;49.90;30.52;;;;;;;-142.57;100.00;115900.28;4977424;28;20043;-80
2023/08/28 03:06:54;;;;;;;45.35;29.98;;;;;;;-142.57;100.00;115900.28;4976806;28;20031;-83
2023/08/28 03:09:20;;;;;;;47.38;30.23;;;;;;;-142.57;100.00;115900.28;4979357;28;20496;-86
2023/08/28 03:11:46;;;;;;;41.60;29.52;;;;;;;-142.57;100.00;115900.28;4978915;28;20062;-79
2023/08/28 03:14:12;;;;;;;44.78;30.75;;;;;;;-142.57;100.00;115900.28;4978302;28;20034;-91
2023/08/28 03:16:37;;;;;;;48.72;29.63;;;;;;;-142.57;100.00;115900.28;4977649;28;20035;-88
2023/08/28 03:19:03;;;;;;;40.33;28.42;;;;;;;-142.57;100.00;115900.28;4977988;28;20039;-86
2023/08/28 03:21:29;;;;;;;37.40;26.77;;;;;;;-142.57;100.00;115900.28;4958449;29;20032;-79
2023/08/28 03:23:55;;;;;;;45.20;27.05;;;;;;;-142.57;100.00;115900.28;4957061;28;20101;-87
2023/08/28 03:26:21;;;;;;;39.45;25.98;;;;;;;-142.57;100.00;115900.28;4958370;28;20520;-87
2023/08/28 03:28:46;;;;;;;37.50;26.73;;;;;;;-142.57;100.00;115900.28;4963776;28;20031;-82
2023/08/28 03:31:12;;;;;;;40.08;26.83;;;;;;;-142.57;100.00;115900.28;4977189;28;20041;-79
2023/08/28 03:33:37;;;;;;;34.85;23.45;;;;;;;-142.57;100.00;115900.28;4977773;28;20041;-85
2023/08/28 03:36:04;;;;;;;35.42;23.52;;;;;;;-142.57;100.00;115900.28;4977673;28;20043;-81
2023/08/28 03:38:30;;;;;;;31.70;23.02;;;;;;;-142.57;100.00;115900.28;4977533;28;20588;-88
2023/08/28 03:40:56;;;;;;;29.88;21.27;;;;;;;-142.57;100.00;115900.28;4977301;28;20094;-87
2023/08/28 03:43:21;;;;;;;29.73;20.98;;;;;;;-142.57;100.00;115900.28;4976308;28;20035;-89
2023/08/28 03:45:47;;;;;;;35.72;20.67;;;;;;;-142.57;100.00;115900.28;4977956;28;20027;-79
2023/08/28 03:48:12;;;;;;;24.90;17.80;;;;;;;-142.57;100.00;115900.28;4992918;28;20031;-82
2023/08/28 03:50:38;;;;;;;20.52;14.70;;;;;;;-142.57;100.00;115900.28;4986469;28;20027;-80
2023/08/28 03:53:04;;;;;;;16.92;12.95;;;;;;;-142.57;100.00;115900.28;4975063;28;20034;-88
2023/08/28 03:55:29;;;;;;;17.02;10.02;;;;;;;-142.57;100.00;115900.28;4976920;28;20027;-81
2023/08/28 03:58:02;;;;;;;12.52;8.80;;;;;;;-142.57;100.00;115900.28;4975682;28;20437;-86
2023/08/28 04:00:31;;;;;;;11.18;7.80;;;;;;;-142.57;100.00;115900.28;4980537;28;20089;-84
2023/08/28 04:03:02;;;;;;;9.90;7.28;;;;;;;-142.57;100.00;115900.28;4952837;29;20043;-79
2023/08/28 04:05:32;;;;;;;11.85;7.10;;;;;;;-142.57;100.00;115900.28;4962354;28;20039;-88
2023/08/28 04:08:00;;;;;;;9.70;6.50;;;;;;;-142.57;100.00;115900.28;4971688;28;20488;-82
2023/08/28 04:10:25;;;;;;;12.30;7.00;;;;;;;-142.57;100.00;115900.28;4971638;28;20145;-79
2023/08/28 04:12:51;;;;;;;9.30;6.82;;;;;;;-142.57;100.00;115900.28;4974706;28;20062;-81
2023/08/28 04:15:16;;;;;;;12.30;6.75;;;;;;;-142.57;100.00;115900.28;4974367;28;20400;-84
2023/08/28 04:17:43;;;;;;;10.98;6.93;;;;;;;-142.57;100.00;115900.28;4974442;28;20100;-81
2023/08/28 04:20:14;;;;;;;14.57;7.50;;;;;;;-142.57;100.00;115900.28;4973835;28;20134;-83
2023/08/28 04:22:43;;;;;;;12.80;7.43;;;;;;;-142.57;100.00;115900.28;4958803;28;20487;-81
2023/08/28 04:25:13;;;;;;;10.23;7.18;;;;;;;-142.57;100.00;115900.28;4974534;28;20082;-77
2023/08/28 04:27:40;;;;;;;12.88;7.40;;;;;;;-142.57;100.00;115900.28;4975942;28;20039;-81
2023/08/28 04:30:07;;;;;;;12.00;7.53;;;;;;;-142.57;100.00;115900.28;4978755;28;20054;-81
2023/08/28 04:32:35;;;;;;;11.25;8.52;;;;;;;-142.57;100.00;115900.28;4978732;28;20205;-80
2023/08/28 04:35:01;;;;;;;15.93;8.07;;;;;;;-142.57;100.00;115900.28;4978513;28;20026;-87
2023/08/28 04:37:27;;;;;;;13.63;8.48;;;;;;;-142.57;100.00;115900.28;4978699;28;20117;-81
2023/08/28 04:39:52;;;;;;;13.38;9.40;;;;;;;-142.57;100.00;115900.28;4976081;28;20058;-87
2023/08/28 04:42:25;;;;;;;11.43;9.02;;;;;;;-142.57;100.00;115900.28;4983396;28;20094;-87
2023/08/28 04:44:50;;;;;;;12.90;8.77;;;;;;;-142.57;100.00;115900.28;4982025;28;20404;-87
2023/08/28 04:47:16;;;;;;;12.02;8.45;;;;;;;-142.57;100.00;115900.28;4978953;28;20077;-84
2023/08/28 04:49:41;;;;;;;12.95;8.02;;;;;;;-142.57;100.00;115900.28;4977495;28;20039;-80
2023/08/28 04:52:07;;;;;;;10.63;8.13;;;;;;;-142.57;100.00;115900.28;4976319;28;20042;-80
2023/08/28 04:54:37;;;;;;;11.13;8.30;;;;;;;-142.57;100.00;115900.28;4978757;28;20396;-82
2023/08/28 04:57:03;;;;;;;12.95;8.10;;;;;;;-142.57;100.00;115900.28;4985291;28;20054;-82
2023/08/28 04:59:37;;;;;;;13.93;8.15;;;;;;;-142.57;100.00;115900.28;4990494;28;20066;-89
2023/08/28 05:02:03;;;;;;;11.27;8.75;;;;;;;-142.57;100.00;115900.28;4985624;28;20481;-86
2023/08/28 05:04:32;;;;;;;14.88;8.63;;;;;;;-142.57;100.00;115900.28;4981135;28;20031;-86
2023/08/28 05:07:02;;;;;;;15.18;8.93;;;;;;;-142.57;100.00;115900.28;4979850;28;20074;-87
2023/08/28 05:09:27;;;;;;;14.25;8.52;;;;;;;-142.57;100.00;115900.28;4960851;28;20027;-87
2023/08/28 05:11:53;;;;;;;12.65;7.40;;;;;;;-142.57;100.00;115900.28;4975288;28;20037;-81
2023/08/28 05:14:19;;;;;;;13.15;7.32;;;;;;;-142.57;100.00;115900.28;4973818;28;20035;-82
2023/08/28 05:16:44;;;;;;;12.65;8.30;;;;;;;-142.57;100.00;115900.28;4979814;28;20046;-84
2023/08/28 05:19:10;;;;;;;18.23;8.02;;;;;;;-142.57;100.00;115900.28;4975833;28;20042;-84
2023/08/28 05:21:36;;;;;;;16.13;8.38;;;;;;;-142.57;100.00;115900.28;4974912;28;20054;-85
2023/08/28 05:24:02;;;;;;;13.48;8.02;;;;;;;-142.57;100.00;115900.28;4977589;28;20043;-84
2023/08/28 05:26:28;;;;;;;12.05;8.07;;;;;;;-142.57;100.00;115900.28;4977141;28;20042;-82
2023/08/28 05:28:54;;;;;;;12.02;8.10;;;;;;;-142.57;100.00;115900.28;4976503;28;20035;-83
2023/08/28 05:31:20;;;;;;;13.13;7.63;;;;;;;-142.57;100.00;115900.28;4969324;28;20043;-79
2023/08/28 05:33:47;;;;;;;15.65;8.77;;;;;;;-142.57;100.00;115900.28;4956792;28;20035;-82
2023/08/28 05:36:13;;;;;;;12.52;7.68;;;;;;;-142.57;100.00;115900.28;4955525;29;20066;-82
2023/08/28 05:38:39;;;;;;;13.60;6.82;;;;;;;-142.57;100.00;115900.28;4967663;28;20384;-83
2023/08/28 05:41:07;;;;;;;10.10;5.95;;;;;;;-142.57;100.00;115900.28;4978524;28;20052;-80
2023/08/28 05:43:32;;;;;;;8.70;5.57;;;;;;;-142.57;100.00;115900.28;4984660;28;20038;-82
2023/08/28 05:45:59;;;;;;;12.45;5.68;;;;;;;-142.57;100.00;115900.28;4977898;28;20065;-82
2023/08/28 05:48:24;;;;;;;11.10;5.70;;;;;;;-142.57;100.00;115900.28;4975292;28;20027;-83
2023/08/28 05:50:50;;;;;;;7.32;5.13;;;;;;;-142.57;100.00;115900.28;4974619;28;20039;-83
2023/08/28 05:53:16;;;;;;;7.78;4.80;;;;;;;-142.57;100.00;115900.28;4975807;28;20069;-82
2023/08/28 05:55:41;;;;;;;7.35;4.70;;;;;;;-142.57;100.00;115900.28;4975103;28;20078;-81
2023/08/28 05:58:07;;;;;;;7.60;4.50;;;;;;;-142.57;100.00;115900.28;4975443;28;20039;-81
2023/08/28 06:00:33;;;;;;;7.30;4.18;;;;;;;-142.57;100.00;115900.28;4974164;28;20114;-81
2023/08/28 06:02:58;;;;;;;11.43;4.50;;;;;;;-142.57;100.00;115900.28;4974795;28;20181;-82
2023/08/28 06:05:24;;;;;;;9.32;4.10;;;;;;;-142.57;100.00;115900.28;4977817;28;20031;-81
2023/08/28 06:07:50;;;;;;;8.32;4.75;;;;;;;-142.57;100.00;115900.28;4970673;28;20039;-82
2023/08/28 06:10:19;;;;;;;10.93;4.50;;;;;;;-142.57;100.00;115900.28;4969734;28;20278;-82
2023/08/28 06:12:48;;;;;;;9.32;4.63;;;;;;;-142.57;100.00;115900.28;4975256;28;20043;-83
2023/08/28 06:15:21;;;;;;;8.82;3.78;;;;;;;-142.57;100.00;115900.28;4975416;28;20073;-83
2023/08/28 06:17:50;;;;;;;6.47;4.03;;;;;;;-142.57;100.00;115900.28;4976546;28;20042;-84
2023/08/28 06:20:15;;;;;;;6.88;3.80;;;;;;;-142.57;100.00;115900.28;4990139;28;20171;-85
2023/08/28 06:22:42;;;;;;;10.30;3.70;;;;;;;-142.57;100.00;115900.28;4972883;28;20078;-85
2023/08/28 06:25:09;;;;;;;6.90;4.10;;;;;;;-142.57;100.00;115900.28;4975977;28;20023;-86
2023/08/28 06:27:34;;;;;;;10.68;4.50;;;;;;;-142.57;100.00;115900.28;4992525;28;20046;-83
2023/08/28 06:30:00;;;;;;;9.07;4.60;;;;;;;-142.57;100.00;115900.28;4975430;28;20035;-86
2023/08/28 06:32:26;;;;;;;7.40;4.80;;;;;;;-142.57;100.00;115900.28;4973262;28;20045;-84
2023/08/28 06:34:51;;;;;;;18.83;5.43;;;;;;;-142.57;100.00;115900.28;4973558;28;20159;-85
2023/08/28 06:37:17;;;;;;;6.57;4.28;;;;;;;-142.57;100.00;115900.28;4974129;28;20526;-81
2023/08/28 06:39:43;;;;;;;7.47;4.43;;;;;;;-142.57;100.00;115900.28;4974472;28;20023;-83
2023/08/28 06:42:08;;;;;;;6.97;3.55;;;;;;;-142.57;100.00;115900.28;4973137;28;20165;-83
2023/08/28 06:44:34;;;;;;;7.88;4.13;;;;;;;-142.57;100.00;115900.28;4991861;28;20035;-86
2023/08/28 06:47:00;;;;;;;8.10;4.00;;;;;;;-142.57;100.00;115900.28;4982227;28;20035;-85
2023/08/28 06:49:26;;;;;;;4.53;2.03;;;;;;;-142.57;100.00;115900.28;4985372;28;20403;-85
2023/08/28 06:51:51;;;;;;;5.60;1.73;;;;;;;-142.57;100.00;115900.28;4975037;28;20039;-84
2023/08/28 06:54:17;;;;;;;9.10;1.40;;;;;;;-142.57;100.00;115900.28;4975717;28;20133;-85
2023/08/28 06:56:42;;;;;;;5.85;1.40;;;;;;;-142.57;100.00;115900.28;4975454;28;20038;-81
2023/08/28 06:59:08;;;;;;;10.75;1.63;;;;;;;-142.57;100.00;115900.28;4974228;28;20065;-81
2023/08/28 07:01:33;;;;;;;5.00;1.58;;;;;;;-142.57;100.00;115900.28;4966004;28;20385;-81
2023/08/28 07:04:04;;;;;;;2.33;0.80;;;;;;;-142.57;100.00;115900.28;4968469;28;20039;-80
2023/08/28 07:06:30;;;;;;;2.78;1.20;;;;;;;-142.57;100.00;115900.28;4972357;28;20067;-81
2023/08/28 07:08:56;;;;;;;2.53;0.93;;;;;;;-142.57;100.00;115900.28;4969985;28;20042;-83
2023/08/28 07:11:21;;;;;;;3.67;1.00;;;;;;;-142.57;100.00;115900.28;4970243;28;20370;-80
2023/08/28 07:13:47;;;;;;;3.83;1.63;;;;;;;-142.57;100.00;115900.28;4957190;28;20370;-80
2023/08/28 07:16:12;;;;;;;5.90;1.63;;;;;;;-142.57;100.00;115900.28;4967187;28;20047;-82
2023/08/28 07:18:43;;;;;;;4.25;2.65;;;;;;;-142.57;100.00;115900.28;4955721;28;20039;-77
2023/08/28 07:21:09;;;;;;;4.60;1.85;;;;;;;-142.57;100.00;115900.28;4973434;28;20550;-79
2023/08/28 07:23:36;;;;;;;3.25;1.40;;;;;;;-142.57;100.00;115900.28;4969985;28;20027;-78
2023/08/28 07:26:02;;;;;;;2.80;1.20;;;;;;;-142.57;100.00;115900.28;4978235;28;20151;-79
2023/08/28 07:28:29;;;;;;;5.97;1.17;;;;;;;-142.57;100.00;115900.28;4971831;28;20082;-81
2023/08/28 07:30:59;;;;;;;4.30;1.60;;;;;;;-142.57;100.00;115900.28;4973135;28;20031;-85
2023/08/28 07:33:25;;;;;;;6.13;2.30;;;;;;;-142.57;100.00;115900.28;4981215;28;20031;-82
2023/08/28 07:35:51;;;;;;;6.13;2.70;;;;;;;-142.57;100.00;115900.28;4984903;28;20069;-82
2023/08/28 07:38:17;;;;;;;8.93;1.92;;;;;;;-142.57;100.00;115900.28;4983453;28;20102;-82
2023/08/28 07:40:46;;;;;;;5.85;1.90;;;;;;;-142.57;100.00;115900.28;4980760;28;20066;-81
2023/08/28 07:43:12;;;;;;;5.25;2.00;;;;;;;-142.57;100.00;115900.28;4982284;28;20057;-80
2023/08/28 07:45:38;;;;;;;12.73;2.65;;;;;;;-142.57;100.00;115900.28;4982725;28;20027;-81
2023/08/28 07:48:04;;;;;;;6.13;2.20;;;;;;;-142.57;100.00;115900.28;4975418;28;20038;-83
2023/08/28 07:50:30;;;;;;;11.85;2.95;;;;;;;-142.57;100.00;115900.28;4983801;28;20034;-81
2023/08/28 07:52:57;;;;;;;8.90;2.75;;;;;;;-142.57;100.00;115900.28;4972361;28;20055;-81
2023/08/28 07:55:22;;;;;;;11.60;2.67;;;;;;;-142.57;98.71;115900.28;4978299;28;20459;-81
2023/08/28 07:57:48;;;;;;;8.05;3.33;;;;;;;-142.57;100.00;115900.28;4978890;28;20027;-82
2023/08/28 08:00:15;;;;;;;8.55;2.78;;;;;;;-142.57;100.00;115900.28;4975730;28;20042;-81
2023/08/28 08:02:41;;;;;;;7.47;3.85;;;;;;;-142.57;100.00;115900.28;4985179;28;20042;-83
2023/08/28 08:05:10;;;;;;;6.80;2.83;;;;;;;-142.57;100.00;115900.28;4984130;28;20113;-83
2023/08/28 08:07:42;;;;;;;5.55;2.80;;;;;;;-142.57;100.00;115900.28;4983608;28;20031;-81
2023/08/28 08:10:10;;;;;;;7.95;2.65;;;;;;;-142.57;100.00;115900.28;4976334;28;20035;-83
2023/08/28 08:12:36;;;;;;;9.18;3.50;;;;;;;-142.57;100.00;115900.28;4970076;28;20029;-80
2023/08/28 08:15:03;;;;;;;10.27;4.25;;;;;;;-142.57;100.00;115900.28;4981892;28;20094;-84
2023/08/28 08:17:28;;;;;;;7.57;4.72;;;;;;;-142.57;100.00;115900.28;4982880;28;20050;-83
2023/08/28 08:19:54;;;;;;;12.23;5.07;;;;;;;-142.57;100.00;115900.28;4982106;28;20027;-83
2023/08/28 08:22:19;;;;;;;8.48;5.30;;;;;;;-142.57;100.00;115900.28;4979592;28;20035;-86
2023/08/28 08:24:45;;;;;;;11.60;5.53;;;;;;;-142.57;100.00;115900.28;4977239;28;20065;-79
2023/08/28 08:27:10;;;;;;;9.20;5.43;;;;;;;-142.57;100.00;115900.28;4977780;28;20432;-82
2023/08/28 08:29:36;;;;;;;11.80;5.68;;;;;;;-142.57;100.00;115900.28;4975588;28;20050;-80
2023/08/28 08:32:01;;;;;;;12.52;5.63;;;;;;;-142.57;100.00;115900.28;4976156;28;20034;-83
2023/08/28 08:34:28;;;;;;;10.15;4.63;;;;;;;-142.57;100.00;115900.28;4977178;28;20030;-81
2023/08/28 08:36:54;;;;;;;7.13;5.05;;;;;;;-142.57;100.00;115900.28;4976238;28;20038;-83
2023/08/28 08:39:24;;;;;;;11.63;5.65;;;;;;;-142.57;100.00;115900.28;4975928;28;20026;-83
2023/08/28 08:41:50;;;;;;;11.02;4.45;;;;;;;-142.57;100.00;115900.28;4983327;28;20038;-81
2023/08/28 08:44:15;;;;;;;9.57;5.00;;;;;;;-142.57;100.00;115900.28;4979876;28;20035;-83
2023/08/28 08:46:44;;;;;;;7.28;4.20;;;;;;;-142.57;100.00;115900.28;4977025;28;20492;-83
2023/08/28 08:49:15;;;;;;;10.68;3.72;;;;;;;-142.57;100.00;115900.28;4975161;28;20515;-82
2023/08/28 08:51:45;;;;;;;7.53;4.47;;;;;;;-142.57;100.00;115900.28;4975562;28;20165;-80
2023/08/28 08:54:34;;;;;;;6.32;3.95;;;;;;;-142.57;100.00;115900.28;4975229;28;20484;-79
2023/08/28 08:57:06;;;;;;;9.88;4.22;;;;;;;-142.57;100.00;115900.28;4973857;28;20061;-81
2023/08/28 08:59:32;;;;;;;13.73;4.20;;;;;;;-142.57;100.00;115900.28;4974140;28;20448;-81
2023/08/28 09:02:00;;;;;;;5.55;3.42;;;;;;;-142.57;100.00;115900.28;4976018;28;20063;-81
2023/08/28 09:04:26;;;;;;;6.65;3.28;;;;;;;-142.57;100.00;115900.28;4978911;28;20031;-82
2023/08/28 09:06:52;;;;;;;4.30;2.38;;;;;;;-142.57;100.00;115900.28;4980811;28;20035;-81
2023/08/28 09:09:19;;;;;;;4.55;2.58;;;;;;;-142.57;100.00;115900.28;4981562;28;20065;-82
2023/08/28 09:11:45;;;;;;;7.00;2.58;;;;;;;-142.57;100.00;115900.28;4976770;28;20031;-87
2023/08/28 09:14:12;;;;;;;5.55;3.00;;;;;;;-142.57;100.00;115900.28;4978114;28;20026;-82
2023/08/28 09:16:37;;;;;;;8.80;3.20;;;;;;;-142.57;100.00;115900.28;4976588;28;20049;-83
2023/08/28 09:19:03;;;;;;;13.15;3.75;;;;;;;-142.57;100.00;115900.28;4979004;28;20035;-83
2023/08/28 09:21:35;;;;;;;15.80;3.90;;;;;;;-142.57;100.00;115900.28;4981964;28;20082;-82
2023/08/28 09:24:01;;;;;;;11.10;4.63;;;;;;;-142.57;100.00;115900.28;4974761;28;20062;-83
2023/08/28 09:26:26;;;;;;;10.88;4.15;;;;;;;-142.57;100.00;115900.28;4975263;28;20058;-82
2023/08/28 09:29:00;;;;;;;14.68;4.28;;;;;;;-142.57;100.00;115900.28;4975146;28;20081;-82
2023/08/28 09:31:33;;;;;;;6.35;2.45;;;;;;;-142.57;100.00;115900.28;4975512;28;20065;-83
2023/08/28 09:34:03;;;;;;;3.70;2.13;;;;;;;-142.57;100.00;115900.28;4975262;28;20039;-83
2023/08/28 09:36:32;;;;;;;6.63;2.10;;;;;;;-142.57;100.00;115900.28;4976126;28;20041;-82
2023/08/28 09:39:00;;;;;;;9.35;2.13;;;;;;;-142.57;100.00;115900.28;4974253;28;20023;-83
2023/08/28 09:41:44;;;;;;;11.85;2.53;;;;;;;-142.57;100.00;115900.28;4974918;28;20035;-82
2023/08/28 09:44:11;;;;;;;9.45;2.00;;;;;;;-142.57;100.00;115900.28;4974336;28;20047;-83
2023/08/28 09:46:37;;;;;;;8.38;1.90;;;;;;;-142.57;100.00;115900.28;4976832;28;20448;-81
2023/08/28 09:49:04;;;;;;;10.70;1.55;;;;;;;-142.57;100.00;115900.28;4976262;28;20539;-82
2023/08/28 09:51:47;;;;;;;6.35;1.83;;;;;;;-142.57;100.00;115900.28;4976393;28;20038;-82
2023/08/28 09:54:15;;;;;;;6.60;1.55;;;;;;;-142.57;100.00;115900.28;4975178;28;20476;-82
2023/08/28 09:56:42;;;;;;;10.65;1.90;;;;;;;-142.57;100.00;115900.28;4955694;28;20147;-81
2023/08/28 09:59:10;;;;;;;5.85;1.83;;;;;;;-142.57;100.00;115900.28;4971143;28;20044;-79
2023/08/28 10:01:37;;;;;;;6.57;1.83;;;;;;;-142.57;100.00;115900.28;4960786;28;20125;-79
2023/08/28 10:04:07;;;;;;;5.95;1.55;;;;;;;-142.57;100.00;115900.28;4964899;28;20393;-80
2023/08/28 10:06:49;;;;;;;5.13;1.55;;;;;;;-142.57;100.00;115900.28;4980863;28;20125;-80
2023/08/28 10:09:18;;;;;;;10.20;1.90;;;;;;;-142.57;100.00;115900.28;4981112;28;20034;-83
2023/08/28 10:11:45;;;;;;;6.10;1.42;;;;;;;-142.57;100.00;115900.28;4979743;28;20289;-80
2023/08/28 10:14:11;;;;;;;6.32;1.63;;;;;;;-142.57;100.00;115900.28;4974593;28;20027;-80
2023/08/28 10:16:42;;;;;;;4.03;1.33;;;;;;;-142.57;100.00;115900.28;4975469;28;20119;-82
2023/08/28 10:19:15;;;;;;;3.97;1.20;;;;;;;-142.57;100.00;115900.28;4976078;28;20033;-80
2023/08/28 10:21:58;;;;;;;3.70;1.55;;;;;;;-142.57;100.00;115900.28;4984344;28;20048;-81
2023/08/28 10:24:31;;;;;;;3.90;1.23;;;;;;;-142.57;100.00;115900.28;4979376;28;20047;-81
2023/08/28 10:26:57;;;;;;;7.30;1.25;;;;;;;-142.57;100.00;115900.28;4964560;28;20039;-81
2023/08/28 10:29:25;;;;;;;3.85;1.33;;;;;;;-142.57;100.00;115900.28;4979484;28;20030;-80
2023/08/28 10:31:55;;;;;;;5.03;1.40;;;;;;;-142.57;100.00;115900.28;4978201;28;20349;-81
2023/08/28 10:34:22;;;;;;;7.05;1.20;;;;;;;-142.57;100.00;115900.28;4980071;28;20043;-81
2023/08/28 10:36:50;;;;;;;4.20;1.13;;;;;;;-142.57;100.00;115900.28;4978529;28;20508;-81
2023/08/28 10:39:17;;;;;;;5.57;1.83;;;;;;;-142.57;100.00;115900.28;4973363;28;20042;-80
2023/08/28 10:41:46;;;;;;;5.20;1.45;;;;;;;-142.57;100.00;115900.28;4975430;28;20408;-80
2023/08/28 10:44:13;;;;;;;3.97;1.25;;;;;;;-142.57;100.00;115900.28;4975201;28;20045;-81
2023/08/28 10:46:40;;;;;;;7.28;1.52;;;;;;;-142.57;100.00;115900.28;4981527;28;20027;-81
2023/08/28 10:49:06;;;;;;;6.22;1.30;;;;;;;-142.57;100.00;115900.28;4994570;28;20485;-78
2023/08/28 10:51:37;;;;;;;5.20;1.08;;;;;;;-142.57;100.00;115900.28;4995514;28;20031;-82
2023/08/28 10:54:08;;;;;;;7.50;1.63;;;;;;;-142.57;100.00;115900.28;4996486;28;20018;-80
2023/08/28 10:56:35;;;;;;;4.22;1.25;;;;;;;-142.57;100.00;115900.28;4985556;28;20042;-80